Centaurus — CUFE6 — position and weather

sailwx.info

Track history (hours):
 
Tides and Currents Weather Stations Pressure Air Temp Water Temp Dewpoint Dewpoint Depression Visibility Wind Speed Wind Dir Waves Ship Positions

Centaurus

Last reported at 2018-May-31 18:24 UTC. Time now 2018-Jun-20 09:33 UTC.
Position N 39°18' W 009°28'.
Warning: this ship's position is 19 days out of date.

; draft 3.5 m.

Type: Fishing. MMSI: 263410940.

Date/timePositionNaut miles runAvg speedWind from/ knotsBaromVisibWave heightAir tempDewpointWater temp
2018-May-31 18:24N 39°18' W 009°28'410.1
2018-May-31 18:00N 39°14' W 009°28'510.1
2018-May-31 17:30N 39°09' W 009°29'510.0
2018-May-31 17:00N 39°04' W 009°30'510.0
2018-May-31 16:30N 38°59' W 009°31'510.2
2018-May-31 16:00N 38°54' W 009°32'510.0
2018-May-31 15:30N 38°49' W 009°33'5 9.9
2018-May-31 15:00N 38°44' W 009°34'510.1
2018-May-31 14:30N 38°39' W 009°32'510.0
2018-May-31 14:00N 38°34' W 009°31'510.1
2018-May-31 13:30N 38°29' W 009°30'510.3
2018-May-31 13:00N 38°24' W 009°28'510.4
2018-May-31 12:30N 38°19' W 009°26'510.0
2018-May-31 12:00N 38°14' W 009°25'510.0
2018-May-31 11:30N 38°09' W 009°23'510.3
2018-May-31 11:00N 38°04' W 009°22'510.1
2018-May-31 10:30N 37°59' W 009°20'510.2
2018-May-31 10:00N 37°54' W 009°19'510.1
2018-May-31 09:30N 37°50' W 009°17'510.3
2018-May-31 09:00N 37°45' W 009°15'610.5
2018-May-31 08:28N 37°39' W 009°13'42 9.8
2018-May-31 04:09N 36°59' W 008°55'210.4
2018-May-31 03:57N 36°60' W 008°53'510.4
2018-May-31 03:30N 37°01' W 008°47'510.5
2018-May-31 03:00N 37°03' W 008°41'510.5
2018-May-31 02:29N 37°05' W 008°35'4 8.0
2018-May-31 02:00N 37°08' W 008°32'0 0.2
2018-May-31 01:30N 37°08' W 008°32'0 0.0
2018-May-31 01:00N 37°08' W 008°32'0 0.0
2018-May-31 00:30N 37°08' W 008°32'0 0.0
2018-May-31 00:00N 37°08' W 008°32'0 0.0
2018-May-30 23:30N 37°08' W 008°32'0 0.0
2018-May-30 23:00N 37°08' W 008°32'0 0.0
2018-May-30 22:30N 37°08' W 008°32'0 0.0
2018-May-30 22:00N 37°08' W 008°32'0 0.0
2018-May-30 21:30N 37°08' W 008°32'0 0.0
2018-May-30 21:00N 37°08' W 008°32'0 0.0
2018-May-30 20:30N 37°08' W 008°32'0 0.0
2018-May-30 20:00N 37°08' W 008°32'0 0.0
2018-May-30 19:30N 37°08' W 008°32'0 0.0
2018-May-30 19:00N 37°08' W 008°32'0 0.0
2018-May-30 18:30N 37°08' W 008°32'0 0.0
2018-May-30 17:59N 37°08' W 008°32'0 0.0
2018-May-30 17:30N 37°08' W 008°32'0 0.0
2018-May-30 17:00N 37°08' W 008°32'0 0.0
2018-May-30 16:13N 37°08' W 008°32'0 0.0
2018-May-30 16:00N 37°08' W 008°32'0 0.0
2018-May-30 15:29N 37°08' W 008°32'0 0.0
2018-May-30 15:00N 37°08' W 008°32'0 0.0
2018-May-30 14:30N 37°08' W 008°32'0 0.0
2018-May-30 13:58N 37°08' W 008°32'0 0.0
2018-May-30 13:30N 37°08' W 008°32'0 0.0
2018-May-30 12:59N 37°08' W 008°32'0 1.0
2018-May-30 12:30N 37°07' W 008°32'510.0
2018-May-30 12:00N 37°03' W 008°31'510.4
2018-May-30 11:30N 36°57' W 008°31'5 0.2
2018-May-29 13:52N 36°59' W 008°24'410.7
2018-May-29 13:30N 37°02' W 008°27'510.7
2018-May-29 13:00N 37°06' W 008°31'2 3.6
2018-May-29 12:27N 37°08' W 008°32'0 0.0
2018-May-29 12:00N 37°08' W 008°32'0 0.0
2018-May-29 11:30N 37°08' W 008°32'0 0.0
2018-May-29 11:00N 37°08' W 008°32'0 0.0
2018-May-29 10:28N 37°08' W 008°32'0 0.0
2018-May-29 10:00N 37°08' W 008°32'0 0.0
2018-May-29 09:30N 37°08' W 008°32'0 0.0
2018-May-29 09:00N 37°08' W 008°32'0 0.0
2018-May-29 08:30N 37°08' W 008°32'0 0.0
2018-May-29 08:00N 37°08' W 008°32'0 0.0
2018-May-29 07:29N 37°08' W 008°32'0 0.0
2018-May-29 07:00N 37°08' W 008°32'0 0.0
2018-May-29 06:30N 37°08' W 008°32'0 0.0
2018-May-29 06:00N 37°08' W 008°32'0 0.0
2018-May-29 05:30N 37°08' W 008°32'0 0.0
2018-May-29 05:00N 37°08' W 008°32'0 0.0
2018-May-29 04:30N 37°08' W 008°32'0 0.0
2018-May-29 04:00N 37°08' W 008°32'0 0.0
2018-May-29 03:29N 37°08' W 008°32'0 0.0
2018-May-29 03:00N 37°08' W 008°32'0 0.0
2018-May-29 02:30N 37°08' W 008°32'0 0.0
2018-May-29 02:00N 37°08' W 008°32'2 4.8
2018-May-29 01:29N 37°06' W 008°33'5 9.4
2018-May-29 01:00N 37°02' W 008°36'5 9.3
2018-May-29 00:30N 36°59' W 008°40'1 2.2
2018-May-29 00:00N 36°60' W 008°39'510.9
2018-May-28 23:30N 37°04' W 008°35'5 9.2
2018-May-28 23:00N 37°08' W 008°32'0 0.6
2018-May-28 22:30N 37°08' W 008°32'0 0.0
2018-May-28 21:58N 37°08' W 008°32'0 0.0
2018-May-28 21:30N 37°08' W 008°32'0 0.0
2018-May-28 21:00N 37°08' W 008°32'0 0.0
2018-May-28 20:30N 37°08' W 008°32'0 0.0
2018-May-28 20:00N 37°08' W 008°32'0 0.0
2018-May-28 19:30N 37°08' W 008°32'0 0.0
2018-May-28 19:00N 37°08' W 008°32'0 0.0
2018-May-28 18:30N 37°08' W 008°32'0 0.0
2018-May-28 17:59N 37°08' W 008°32'0 0.0
2018-May-28 17:30N 37°08' W 008°32'0 0.0
2018-May-28 16:58N 37°08' W 008°32'0 0.0
2018-May-28 16:30N 37°08' W 008°32'0 0.0
2018-May-28 15:55N 37°08' W 008°32'0 0.0
2018-May-28 15:30N 37°08' W 008°32'0 0.0
2018-May-28 14:56N 37°08' W 008°32'0 0.0
2018-May-28 14:30N 37°08' W 008°32'0 0.1
2018-May-28 14:00N 37°08' W 008°32'5 8.9
2018-May-28 13:30N 37°04' W 008°31'510.1
2018-May-28 13:00N 36°59' W 008°30'3 5.1
2018-May-28 12:30N 36°56' W 008°30'11 1.5
2018-May-28 05:18N 36°55' W 008°17'1 4.2
2018-May-28 05:00N 36°57' W 008°17'1 2.0
2018-May-28 04:30N 36°57' W 008°17'510.2
2018-May-28 04:00N 37°01' W 008°22'510.3
2018-May-28 03:29N 37°04' W 008°28'5 9.5
2018-May-28 03:00N 37°07' W 008°32'1 1.7
2018-May-28 02:30N 37°08' W 008°32'0 0.0
2018-May-28 02:00N 37°08' W 008°32'0 0.0
2018-May-28 01:30N 37°08' W 008°32'0 0.0
2018-May-28 01:00N 37°08' W 008°32'0 0.0
2018-May-28 00:30N 37°08' W 008°32'0 0.0
2018-May-28 00:00N 37°08' W 008°32'0 0.0
2018-May-27 23:30N 37°08' W 008°32'0 0.0
2018-May-27 23:00N 37°08' W 008°32'0 0.0
2018-May-27 22:30N 37°08' W 008°32'0 0.0
2018-May-27 22:00N 37°08' W 008°32'0 0.0
2018-May-27 21:30N 37°08' W 008°32'0 0.0
2018-May-27 21:00N 37°08' W 008°32'0 0.0
2018-May-27 20:30N 37°08' W 008°32'0 0.0
2018-May-27 20:00N 37°08' W 008°32'1 1.5
2018-May-27 19:30N 37°07' W 008°31'5 9.7
2018-May-27 19:00N 37°02' W 008°33'20 1.4
2018-May-27 04:14N 36°56' W 008°57'310.8
2018-May-27 03:58N 36°57' W 008°54'510.8
2018-May-27 03:30N 36°59' W 008°48'510.9
2018-May-27 03:00N 37°02' W 008°42'611.0
2018-May-27 02:30N 37°04' W 008°36'5 9.3
2018-May-27 02:00N 37°08' W 008°32'0 0.9
2018-May-27 01:30N 37°08' W 008°32'0 0.0
2018-May-27 01:00N 37°08' W 008°32'0 0.0
2018-May-27 00:30N 37°08' W 008°32'0 0.0
2018-May-27 00:00N 37°08' W 008°32'0 0.0
2018-May-26 23:30N 37°08' W 008°32'0 0.0
2018-May-26 22:57N 37°08' W 008°32'0 0.0
2018-May-26 22:29N 37°08' W 008°32'0 0.0
2018-May-26 22:00N 37°08' W 008°32'0 0.0
2018-May-26 21:30N 37°08' W 008°32'0 0.0
2018-May-26 21:00N 37°08' W 008°32'0 0.0
2018-May-26 20:30N 37°08' W 008°32'0 0.0
2018-May-26 19:59N 37°08' W 008°32'0 0.0
2018-May-26 19:30N 37°08' W 008°32'0 0.0
2018-May-26 19:00N 37°08' W 008°32'0 0.0
2018-May-26 18:29N 37°08' W 008°32'0 0.0
2018-May-26 17:59N 37°08' W 008°32'0 0.0
2018-May-26 17:29N 37°08' W 008°32'0 0.0
2018-May-26 17:00N 37°08' W 008°32'0 0.0
2018-May-26 16:30N 37°08' W 008°32'0 0.0
2018-May-26 16:00N 37°08' W 008°32'0 0.0
2018-May-26 15:29N 37°08' W 008°32'0 0.0
2018-May-26 15:00N 37°08' W 008°32'0 0.0
2018-May-26 14:30N 37°08' W 008°32'0 0.0
2018-May-26 13:56N 37°08' W 008°32'0 0.0
2018-May-26 13:30N 37°08' W 008°32'0 0.0
2018-May-26 12:53N 37°08' W 008°32'0 0.0
2018-May-26 12:28N 37°08' W 008°32'0 0.0
2018-May-26 11:59N 37°08' W 008°32'3 7.1
2018-May-26 11:30N 37°05' W 008°34'510.5
2018-May-26 11:00N 37°03' W 008°40'510.2
2018-May-26 10:30N 37°02' W 008°47'510.3
2018-May-26 10:00N 37°00' W 008°53'2 0.3
2018-May-26 02:40N 37°00' W 008°50'210.6
2018-May-26 02:30N 37°01' W 008°48'610.9
2018-May-26 02:00N 37°02' W 008°41'510.4
2018-May-26 01:30N 37°05' W 008°35'4 8.5
2018-May-26 01:00N 37°08' W 008°32'0 0.1
2018-May-26 00:30N 37°08' W 008°32'0 0.0
2018-May-26 00:00N 37°08' W 008°32'0 0.0
2018-May-25 23:30N 37°08' W 008°32'0 0.0
2018-May-25 22:59N 37°08' W 008°32'0 0.0
2018-May-25 22:30N 37°08' W 008°32'0 0.0
2018-May-25 21:58N 37°08' W 008°32'0 0.0
2018-May-25 21:30N 37°08' W 008°32'0 0.0
2018-May-25 21:00N 37°08' W 008°32'0 0.0
2018-May-25 20:30N 37°08' W 008°32'0 0.0
2018-May-25 20:00N 37°08' W 008°32'0 0.0
2018-May-25 19:30N 37°08' W 008°32'0 0.0
2018-May-25 19:00N 37°08' W 008°32'0 0.0
2018-May-25 18:30N 37°08' W 008°32'0 0.0
2018-May-25 17:58N 37°08' W 008°32'0 0.0
2018-May-25 17:30N 37°08' W 008°32'0 0.0
2018-May-25 16:59N 37°08' W 008°32'0 0.0
2018-May-25 16:30N 37°08' W 008°32'0 0.0
2018-May-25 15:56N 37°08' W 008°32'0 0.0
2018-May-25 15:30N 37°08' W 008°32'0 0.0
2018-May-25 15:00N 37°08' W 008°32'0 0.0
2018-May-25 14:27N 37°08' W 008°32'0 0.0
2018-May-25 14:00N 37°08' W 008°32'0 0.0
2018-May-25 13:30N 37°08' W 008°32'0 0.0
2018-May-25 12:59N 37°08' W 008°32'0 0.0
2018-May-25 12:30N 37°08' W 008°32'0 0.8
2018-May-25 12:00N 37°08' W 008°32'5 9.4
2018-May-25 11:30N 37°03' W 008°30'510.5
2018-May-25 11:00N 36°58' W 008°29'19 3.0
2018-May-25 04:44N 36°52' W 008°07'0 0.5
2018-May-25 04:29N 36°52' W 008°07'2 3.3
2018-May-25 03:53N 36°53' W 008°09'3 8.2
2018-May-25 03:30N 36°55' W 008°11'1 1.3
2018-May-25 03:00N 36°55' W 008°11'2 4.1
2018-May-25 02:28N 36°55' W 008°08'1 1.5
2018-May-25 02:00N 36°56' W 008°08'510.5
2018-May-25 01:29N 36°57' W 008°15'2 4.9
2018-May-25 01:00N 36°57' W 008°18'2 4.0
2018-May-25 00:30N 36°57' W 008°20'2 4.1
2018-May-25 00:00N 36°59' W 008°22'2 3.7
2018-May-24 23:30N 36°59' W 008°24'2 4.2
2018-May-24 23:00N 36°59' W 008°27'5 9.9
2018-May-24 22:30N 37°03' W 008°30'5 9.1
2018-May-24 22:00N 37°08' W 008°32'0 0.6
2018-May-24 21:29N 37°08' W 008°32'0 0.0
2018-May-24 21:00N 37°08' W 008°32'0 0.0
2018-May-24 20:30N 37°08' W 008°32'0 0.0
2018-May-24 19:59N 37°08' W 008°32'0 0.0
2018-May-24 19:30N 37°08' W 008°32'0 0.0
2018-May-24 19:00N 37°08' W 008°32'0 0.0
2018-May-24 18:30N 37°08' W 008°32'0 0.0
2018-May-24 17:54N 37°08' W 008°32'0 0.0
2018-May-24 17:29N 37°08' W 008°32'0 0.0
2018-May-24 17:00N 37°08' W 008°32'0 0.0
2018-May-24 16:28N 37°08' W 008°32'0 0.0
2018-May-24 15:58N 37°08' W 008°32'0 0.0
2018-May-24 15:30N 37°08' W 008°32'0 0.0
2018-May-24 14:58N 37°08' W 008°32'0 0.0
2018-May-24 14:22N 37°08' W 008°32'0 0.0
2018-May-24 14:00N 37°08' W 008°32'0 0.0
2018-May-24 13:23N 37°08' W 008°32'17 2.9
2018-May-24 07:28N 36°56' W 008°16'4 1.4
2018-May-24 04:55N 36°55' W 008°12'0 0.2
2018-May-24 04:25N 36°55' W 008°12'1 2.1
2018-May-24 04:00N 36°55' W 008°13'5 9.2
2018-May-24 03:26N 36°56' W 008°19'4 9.0
2018-May-24 02:59N 36°57' W 008°24'4 9.2
2018-May-24 02:30N 36°59' W 008°30'3 5.6
2018-May-24 02:00N 36°60' W 008°33'3 1.5
2018-May-24 00:06N 36°57' W 008°30'110.7
2018-May-24 00:00N 36°58' W 008°32'4 8.8
2018-May-23 23:30N 37°03' W 008°32'510.0
2018-May-23 23:00N 37°08' W 008°32'0 0.9
2018-May-23 22:29N 37°08' W 008°32'0 0.0
2018-May-23 21:59N 37°08' W 008°32'0 0.0
2018-May-23 21:30N 37°08' W 008°32'0 0.0
2018-May-23 21:00N 37°08' W 008°32'0 0.0
2018-May-23 20:30N 37°08' W 008°32'0 0.0
2018-May-23 20:00N 37°08' W 008°32'0 0.0
2018-May-23 19:28N 37°08' W 008°32'0 0.0
2018-May-23 18:59N 37°08' W 008°32'0 0.0
2018-May-23 18:30N 37°08' W 008°32'0 0.0
2018-May-23 18:00N 37°08' W 008°32'0 0.0
2018-May-23 17:24N 37°08' W 008°32'0 0.0
2018-May-23 17:00N 37°08' W 008°32'0 0.0
2018-May-23 16:30N 37°08' W 008°32'0 0.0
2018-May-23 15:58N 37°08' W 008°32'0 0.0
2018-May-23 15:29N 37°08' W 008°32'0 0.0
2018-May-23 15:00N 37°08' W 008°32'0 0.0
2018-May-23 14:30N 37°08' W 008°32'0 0.0
2018-May-23 13:57N 37°08' W 008°32'0 0.0
2018-May-23 13:27N 37°08' W 008°32'0 0.0
2018-May-23 12:58N 37°08' W 008°32'0 0.0
2018-May-23 12:30N 37°08' W 008°32'3 6.0
2018-May-23 12:00N 37°05' W 008°30'510.4
2018-May-23 11:30N 37°02' W 008°25'8 1.2
2018-May-23 04:51N 36°57' W 008°17'1 3.3
2018-May-23 04:30N 36°58' W 008°18'510.3
2018-May-23 04:00N 37°01' W 008°23'510.5
2018-May-23 03:30N 37°04' W 008°28'4 8.9
2018-May-23 03:00N 37°08' W 008°32'0 0.6
2018-May-23 02:30N 37°08' W 008°32'0 0.0
2018-May-23 02:00N 37°08' W 008°32'0 0.0
2018-May-23 01:30N 37°08' W 008°32'0 0.0
2018-May-23 01:00N 37°08' W 008°32'0 0.0
2018-May-23 00:30N 37°08' W 008°32'0 0.0
2018-May-23 00:00N 37°08' W 008°32'0 0.0
2018-May-22 23:30N 37°08' W 008°32'0 0.0
2018-May-22 23:00N 37°08' W 008°32'0 0.0
2018-May-22 22:30N 37°08' W 008°32'0 0.0
2018-May-22 22:00N 37°08' W 008°32'0 0.0
2018-May-22 21:30N 37°08' W 008°32'0 0.0
2018-May-22 21:00N 37°08' W 008°32'0 0.0
2018-May-22 20:30N 37°08' W 008°32'0 0.0
2018-May-22 20:00N 37°08' W 008°32'0 0.0
2018-May-22 19:30N 37°08' W 008°32'0 0.0
2018-May-22 19:00N 37°08' W 008°32'0 0.0
2018-May-22 18:30N 37°08' W 008°32'0 0.0
2018-May-22 18:00N 37°08' W 008°32'0 0.0
2018-May-22 17:30N 37°08' W 008°32'0 0.0
2018-May-22 17:00N 37°08' W 008°32'0 0.0
2018-May-22 16:30N 37°08' W 008°32'0 0.0
2018-May-22 16:00N 37°08' W 008°32'0 0.0
2018-May-22 15:30N 37°08' W 008°32'0 0.0
2018-May-22 15:00N 37°08' W 008°32'0 0.0
2018-May-22 14:30N 37°08' W 008°32'0 0.0
2018-May-22 14:00N 37°08' W 008°32'0 0.0
2018-May-22 13:30N 37°08' W 008°32'0 0.0
2018-May-22 13:00N 37°08' W 008°32'0 0.0
2018-May-22 12:30N 37°08' W 008°32'0 0.0
2018-May-22 12:00N 37°08' W 008°32'0 0.0
2018-May-22 11:30N 37°08' W 008°32'0 0.0
2018-May-22 11:00N 37°08' W 008°32'0 0.0
2018-May-22 10:30N 37°08' W 008°32'0 0.0
2018-May-22 10:00N 37°08' W 008°32'0 0.0
2018-May-22 09:30N 37°08' W 008°32'0 0.0
2018-May-22 09:00N 37°08' W 008°32'0 0.0
2018-May-22 08:30N 37°08' W 008°32'0 0.0
2018-May-22 08:00N 37°08' W 008°32'0 0.0
2018-May-22 07:30N 37°08' W 008°32'0 0.0
2018-May-22 07:00N 37°08' W 008°32'0 0.0
2018-May-22 06:30N 37°08' W 008°32'0 0.0
2018-May-22 06:00N 37°08' W 008°32'0 0.0
2018-May-22 05:30N 37°08' W 008°32'0 0.0
2018-May-22 05:00N 37°08' W 008°32'0 0.0
2018-May-22 04:30N 37°08' W 008°32'0 0.0
2018-May-22 04:00N 37°08' W 008°32'0 0.0
2018-May-22 03:30N 37°08' W 008°32'0 0.0
2018-May-22 03:00N 37°08' W 008°32'0 0.0
2018-May-22 02:30N 37°08' W 008°32'0 0.0
2018-May-22 02:00N 37°08' W 008°32'0 0.0
2018-May-22 01:30N 37°08' W 008°32'0 0.0
2018-May-22 01:00N 37°08' W 008°32'0 0.0
2018-May-22 00:30N 37°08' W 008°32'0 0.0
2018-May-22 00:00N 37°08' W 008°32'0 0.0
2018-May-21 23:30N 37°08' W 008°32'0 0.0
2018-May-21 23:00N 37°08' W 008°32'0 0.0
2018-May-21 22:30N 37°08' W 008°32'0 0.0
2018-May-21 22:00N 37°08' W 008°32'0 0.0
2018-May-21 21:30N 37°08' W 008°32'0 0.0
2018-May-21 21:00N 37°08' W 008°32'0 0.0
2018-May-21 20:30N 37°08' W 008°32'0 0.0
2018-May-21 20:00N 37°08' W 008°32'0 0.0
2018-May-21 19:30N 37°08' W 008°32'0 0.0
2018-May-21 19:00N 37°08' W 008°32'0 0.0
2018-May-21 18:30N 37°08' W 008°32'  
Track history (hours):
 
Tides and Currents Weather Stations Pressure Air Temp Water Temp Dewpoint Dewpoint Depression Visibility Wind Speed Wind Dir Waves Ship Positions

Centaurus

Last reported at 2018-May-31 18:24 UTC. Time now 2018-Jun-20 09:33 UTC.
Position N 39°18' W 009°28'.
Warning: this ship's position is 19 days out of date.

; draft 3.5 m.

Type: Fishing. MMSI: 263410940.

Date/timePositionNaut miles runAvg speedWind from/ knotsBaromVisibWave heightAir tempDewpointWater temp
2018-May-31 18:24N 39°18' W 009°28'410.1
2018-May-31 18:00N 39°14' W 009°28'510.1
2018-May-31 17:30N 39°09' W 009°29'510.0
2018-May-31 17:00N 39°04' W 009°30'510.0
2018-May-31 16:30N 38°59' W 009°31'510.2
2018-May-31 16:00N 38°54' W 009°32'510.0
2018-May-31 15:30N 38°49' W 009°33'5 9.9
2018-May-31 15:00N 38°44' W 009°34'510.1
2018-May-31 14:30N 38°39' W 009°32'510.0
2018-May-31 14:00N 38°34' W 009°31'510.1
2018-May-31 13:30N 38°29' W 009°30'510.3
2018-May-31 13:00N 38°24' W 009°28'510.4
2018-May-31 12:30N 38°19' W 009°26'510.0
2018-May-31 12:00N 38°14' W 009°25'510.0
2018-May-31 11:30N 38°09' W 009°23'510.3
2018-May-31 11:00N 38°04' W 009°22'510.1
2018-May-31 10:30N 37°59' W 009°20'510.2
2018-May-31 10:00N 37°54' W 009°19'510.1
2018-May-31 09:30N 37°50' W 009°17'510.3
2018-May-31 09:00N 37°45' W 009°15'610.5
2018-May-31 08:28N 37°39' W 009°13'42 9.8
2018-May-31 04:09N 36°59' W 008°55'210.4
2018-May-31 03:57N 36°60' W 008°53'510.4
2018-May-31 03:30N 37°01' W 008°47'510.5
2018-May-31 03:00N 37°03' W 008°41'510.5
2018-May-31 02:29N 37°05' W 008°35'4 8.0
2018-May-31 02:00N 37°08' W 008°32'0 0.2
2018-May-31 01:30N 37°08' W 008°32'0 0.0
2018-May-31 01:00N 37°08' W 008°32'0 0.0
2018-May-31 00:30N 37°08' W 008°32'0 0.0
2018-May-31 00:00N 37°08' W 008°32'0 0.0
2018-May-30 23:30N 37°08' W 008°32'0 0.0
2018-May-30 23:00N 37°08' W 008°32'0 0.0
2018-May-30 22:30N 37°08' W 008°32'0 0.0
2018-May-30 22:00N 37°08' W 008°32'0 0.0
2018-May-30 21:30N 37°08' W 008°32'0 0.0
2018-May-30 21:00N 37°08' W 008°32'0 0.0
2018-May-30 20:30N 37°08' W 008°32'0 0.0
2018-May-30 20:00N 37°08' W 008°32'0 0.0
2018-May-30 19:30N 37°08' W 008°32'0 0.0
2018-May-30 19:00N 37°08' W 008°32'0 0.0
2018-May-30 18:30N 37°08' W 008°32'0 0.0
2018-May-30 17:59N 37°08' W 008°32'0 0.0
2018-May-30 17:30N 37°08' W 008°32'0 0.0
2018-May-30 17:00N 37°08' W 008°32'0 0.0
2018-May-30 16:13N 37°08' W 008°32'0 0.0
2018-May-30 16:00N 37°08' W 008°32'0 0.0
2018-May-30 15:29N 37°08' W 008°32'0 0.0
2018-May-30 15:00N 37°08' W 008°32'0 0.0
2018-May-30 14:30N 37°08' W 008°32'0 0.0
2018-May-30 13:58N 37°08' W 008°32'0 0.0
2018-May-30 13:30N 37°08' W 008°32'0 0.0
2018-May-30 12:59N 37°08' W 008°32'0 1.0
2018-May-30 12:30N 37°07' W 008°32'510.0
2018-May-30 12:00N 37°03' W 008°31'510.4
2018-May-30 11:30N 36°57' W 008°31'5 0.2
2018-May-29 13:52N 36°59' W 008°24'410.7
2018-May-29 13:30N 37°02' W 008°27'510.7
2018-May-29 13:00N 37°06' W 008°31'2 3.6
2018-May-29 12:27N 37°08' W 008°32'0 0.0
2018-May-29 12:00N 37°08' W 008°32'0 0.0
2018-May-29 11:30N 37°08' W 008°32'0 0.0
2018-May-29 11:00N 37°08' W 008°32'0 0.0
2018-May-29 10:28N 37°08' W 008°32'0 0.0
2018-May-29 10:00N 37°08' W 008°32'0 0.0
2018-May-29 09:30N 37°08' W 008°32'0 0.0
2018-May-29 09:00N 37°08' W 008°32'0 0.0
2018-May-29 08:30N 37°08' W 008°32'0 0.0
2018-May-29 08:00N 37°08' W 008°32'0 0.0
2018-May-29 07:29N 37°08' W 008°32'0 0.0
2018-May-29 07:00N 37°08' W 008°32'0 0.0
2018-May-29 06:30N 37°08' W 008°32'0 0.0
2018-May-29 06:00N 37°08' W 008°32'0 0.0
2018-May-29 05:30N 37°08' W 008°32'0 0.0
2018-May-29 05:00N 37°08' W 008°32'0 0.0
2018-May-29 04:30N 37°08' W 008°32'0 0.0
2018-May-29 04:00N 37°08' W 008°32'0 0.0
2018-May-29 03:29N 37°08' W 008°32'0 0.0
2018-May-29 03:00N 37°08' W 008°32'0 0.0
2018-May-29 02:30N 37°08' W 008°32'0 0.0
2018-May-29 02:00N 37°08' W 008°32'2 4.8
2018-May-29 01:29N 37°06' W 008°33'5 9.4
2018-May-29 01:00N 37°02' W 008°36'5 9.3
2018-May-29 00:30N 36°59' W 008°40'1 2.2
2018-May-29 00:00N 36°60' W 008°39'510.9
2018-May-28 23:30N 37°04' W 008°35'5 9.2
2018-May-28 23:00N 37°08' W 008°32'0 0.6
2018-May-28 22:30N 37°08' W 008°32'0 0.0
2018-May-28 21:58N 37°08' W 008°32'0 0.0
2018-May-28 21:30N 37°08' W 008°32'0 0.0
2018-May-28 21:00N 37°08' W 008°32'0 0.0
2018-May-28 20:30N 37°08' W 008°32'0 0.0
2018-May-28 20:00N 37°08' W 008°32'0 0.0
2018-May-28 19:30N 37°08' W 008°32'0 0.0
2018-May-28 19:00N 37°08' W 008°32'0 0.0
2018-May-28 18:30N 37°08' W 008°32'0 0.0
2018-May-28 17:59N 37°08' W 008°32'0 0.0
2018-May-28 17:30N 37°08' W 008°32'0 0.0
2018-May-28 16:58N 37°08' W 008°32'0 0.0
2018-May-28 16:30N 37°08' W 008°32'0 0.0
2018-May-28 15:55N 37°08' W 008°32'0 0.0
2018-May-28 15:30N 37°08' W 008°32'0 0.0
2018-May-28 14:56N 37°08' W 008°32'0 0.0
2018-May-28 14:30N 37°08' W 008°32'0 0.1
2018-May-28 14:00N 37°08' W 008°32'5 8.9
2018-May-28 13:30N 37°04' W 008°31'510.1
2018-May-28 13:00N 36°59' W 008°30'3 5.1
2018-May-28 12:30N 36°56' W 008°30'11 1.5
2018-May-28 05:18N 36°55' W 008°17'1 4.2
2018-May-28 05:00N 36°57' W 008°17'1 2.0
2018-May-28 04:30N 36°57' W 008°17'510.2
2018-May-28 04:00N 37°01' W 008°22'510.3
2018-May-28 03:29N 37°04' W 008°28'5 9.5
2018-May-28 03:00N 37°07' W 008°32'1 1.7
2018-May-28 02:30N 37°08' W 008°32'0 0.0
2018-May-28 02:00N 37°08' W 008°32'0 0.0
2018-May-28 01:30N 37°08' W 008°32'0 0.0
2018-May-28 01:00N 37°08' W 008°32'0 0.0
2018-May-28 00:30N 37°08' W 008°32'0 0.0
2018-May-28 00:00N 37°08' W 008°32'0 0.0
2018-May-27 23:30N 37°08' W 008°32'0 0.0
2018-May-27 23:00N 37°08' W 008°32'0 0.0
2018-May-27 22:30N 37°08' W 008°32'0 0.0
2018-May-27 22:00N 37°08' W 008°32'0 0.0
2018-May-27 21:30N 37°08' W 008°32'0 0.0
2018-May-27 21:00N 37°08' W 008°32'0 0.0
2018-May-27 20:30N 37°08' W 008°32'0 0.0
2018-May-27 20:00N 37°08' W 008°32'1 1.5
2018-May-27 19:30N 37°07' W 008°31'5 9.7
2018-May-27 19:00N 37°02' W 008°33'20 1.4
2018-May-27 04:14N 36°56' W 008°57'310.8
2018-May-27 03:58N 36°57' W 008°54'510.8
2018-May-27 03:30N 36°59' W 008°48'510.9
2018-May-27 03:00N 37°02' W 008°42'611.0
2018-May-27 02:30N 37°04' W 008°36'5 9.3
2018-May-27 02:00N 37°08' W 008°32'0 0.9
2018-May-27 01:30N 37°08' W 008°32'0 0.0
2018-May-27 01:00N 37°08' W 008°32'0 0.0
2018-May-27 00:30N 37°08' W 008°32'0 0.0
2018-May-27 00:00N 37°08' W 008°32'0 0.0
2018-May-26 23:30N 37°08' W 008°32'0 0.0
2018-May-26 22:57N 37°08' W 008°32'0 0.0
2018-May-26 22:29N 37°08' W 008°32'0 0.0
2018-May-26 22:00N 37°08' W 008°32'0 0.0
2018-May-26 21:30N 37°08' W 008°32'0 0.0
2018-May-26 21:00N 37°08' W 008°32'0 0.0
2018-May-26 20:30N 37°08' W 008°32'0 0.0
2018-May-26 19:59N 37°08' W 008°32'0 0.0
2018-May-26 19:30N 37°08' W 008°32'0 0.0
2018-May-26 19:00N 37°08' W 008°32'0 0.0
2018-May-26 18:29N 37°08' W 008°32'0 0.0
2018-May-26 17:59N 37°08' W 008°32'0 0.0
2018-May-26 17:29N 37°08' W 008°32'0 0.0
2018-May-26 17:00N 37°08' W 008°32'0 0.0
2018-May-26 16:30N 37°08' W 008°32'0 0.0
2018-May-26 16:00N 37°08' W 008°32'0 0.0
2018-May-26 15:29N 37°08' W 008°32'0 0.0
2018-May-26 15:00N 37°08' W 008°32'0 0.0
2018-May-26 14:30N 37°08' W 008°32'0 0.0
2018-May-26 13:56N 37°08' W 008°32'0 0.0
2018-May-26 13:30N 37°08' W 008°32'0 0.0
2018-May-26 12:53N 37°08' W 008°32'0 0.0
2018-May-26 12:28N 37°08' W 008°32'0 0.0
2018-May-26 11:59N 37°08' W 008°32'3 7.1
2018-May-26 11:30N 37°05' W 008°34'510.5
2018-May-26 11:00N 37°03' W 008°40'510.2
2018-May-26 10:30N 37°02' W 008°47'510.3
2018-May-26 10:00N 37°00' W 008°53'2 0.3
2018-May-26 02:40N 37°00' W 008°50'210.6
2018-May-26 02:30N 37°01' W 008°48'610.9
2018-May-26 02:00N 37°02' W 008°41'510.4
2018-May-26 01:30N 37°05' W 008°35'4 8.5
2018-May-26 01:00N 37°08' W 008°32'0 0.1
2018-May-26 00:30N 37°08' W 008°32'0 0.0
2018-May-26 00:00N 37°08' W 008°32'0 0.0
2018-May-25 23:30N 37°08' W 008°32'0 0.0
2018-May-25 22:59N 37°08' W 008°32'0 0.0
2018-May-25 22:30N 37°08' W 008°32'0 0.0
2018-May-25 21:58N 37°08' W 008°32'0 0.0
2018-May-25 21:30N 37°08' W 008°32'0 0.0
2018-May-25 21:00N 37°08' W 008°32'0 0.0
2018-May-25 20:30N 37°08' W 008°32'0 0.0
2018-May-25 20:00N 37°08' W 008°32'0 0.0
2018-May-25 19:30N 37°08' W 008°32'0 0.0
2018-May-25 19:00N 37°08' W 008°32'0 0.0
2018-May-25 18:30N 37°08' W 008°32'0 0.0
2018-May-25 17:58N 37°08' W 008°32'0 0.0
2018-May-25 17:30N 37°08' W 008°32'0 0.0
2018-May-25 16:59N 37°08' W 008°32'0 0.0
2018-May-25 16:30N 37°08' W 008°32'0 0.0
2018-May-25 15:56N 37°08' W 008°32'0 0.0
2018-May-25 15:30N 37°08' W 008°32'0 0.0
2018-May-25 15:00N 37°08' W 008°32'0 0.0
2018-May-25 14:27N 37°08' W 008°32'0 0.0
2018-May-25 14:00N 37°08' W 008°32'0 0.0
2018-May-25 13:30N 37°08' W 008°32'0 0.0
2018-May-25 12:59N 37°08' W 008°32'0 0.0
2018-May-25 12:30N 37°08' W 008°32'0 0.8
2018-May-25 12:00N 37°08' W 008°32'5 9.4
2018-May-25 11:30N 37°03' W 008°30'510.5
2018-May-25 11:00N 36°58' W 008°29'19 3.0
2018-May-25 04:44N 36°52' W 008°07'0 0.5
2018-May-25 04:29N 36°52' W 008°07'2 3.3
2018-May-25 03:53N 36°53' W 008°09'3 8.2
2018-May-25 03:30N 36°55' W 008°11'1 1.3
2018-May-25 03:00N 36°55' W 008°11'2 4.1
2018-May-25 02:28N 36°55' W 008°08'1 1.5
2018-May-25 02:00N 36°56' W 008°08'510.5
2018-May-25 01:29N 36°57' W 008°15'2 4.9
2018-May-25 01:00N 36°57' W 008°18'2 4.0
2018-May-25 00:30N 36°57' W 008°20'2 4.1
2018-May-25 00:00N 36°59' W 008°22'2 3.7
2018-May-24 23:30N 36°59' W 008°24'2 4.2
2018-May-24 23:00N 36°59' W 008°27'5 9.9
2018-May-24 22:30N 37°03' W 008°30'5 9.1
2018-May-24 22:00N 37°08' W 008°32'0 0.6
2018-May-24 21:29N 37°08' W 008°32'0 0.0
2018-May-24 21:00N 37°08' W 008°32'0 0.0
2018-May-24 20:30N 37°08' W 008°32'0 0.0
2018-May-24 19:59N 37°08' W 008°32'0 0.0
2018-May-24 19:30N 37°08' W 008°32'0 0.0
2018-May-24 19:00N 37°08' W 008°32'0 0.0
2018-May-24 18:30N 37°08' W 008°32'0 0.0
2018-May-24 17:54N 37°08' W 008°32'0 0.0
2018-May-24 17:29N 37°08' W 008°32'0 0.0
2018-May-24 17:00N 37°08' W 008°32'0 0.0
2018-May-24 16:28N 37°08' W 008°32'0 0.0
2018-May-24 15:58N 37°08' W 008°32'0 0.0
2018-May-24 15:30N 37°08' W 008°32'0 0.0
2018-May-24 14:58N 37°08' W 008°32'0 0.0
2018-May-24 14:22N 37°08' W 008°32'0 0.0
2018-May-24 14:00N 37°08' W 008°32'0 0.0
2018-May-24 13:23N 37°08' W 008°32'17 2.9
2018-May-24 07:28N 36°56' W 008°16'4 1.4
2018-May-24 04:55N 36°55' W 008°12'0 0.2
2018-May-24 04:25N 36°55' W 008°12'1 2.1
2018-May-24 04:00N 36°55' W 008°13'5 9.2
2018-May-24 03:26N 36°56' W 008°19'4 9.0
2018-May-24 02:59N 36°57' W 008°24'4 9.2
2018-May-24 02:30N 36°59' W 008°30'3 5.6
2018-May-24 02:00N 36°60' W 008°33'3 1.5
2018-May-24 00:06N 36°57' W 008°30'110.7
2018-May-24 00:00N 36°58' W 008°32'4 8.8
2018-May-23 23:30N 37°03' W 008°32'510.0
2018-May-23 23:00N 37°08' W 008°32'0 0.9
2018-May-23 22:29N 37°08' W 008°32'0 0.0
2018-May-23 21:59N 37°08' W 008°32'0 0.0
2018-May-23 21:30N 37°08' W 008°32'0 0.0
2018-May-23 21:00N 37°08' W 008°32'0 0.0
2018-May-23 20:30N 37°08' W 008°32'0 0.0
2018-May-23 20:00N 37°08' W 008°32'0 0.0
2018-May-23 19:28N 37°08' W 008°32'0 0.0
2018-May-23 18:59N 37°08' W 008°32'0 0.0
2018-May-23 18:30N 37°08' W 008°32'0 0.0
2018-May-23 18:00N 37°08' W 008°32'0 0.0
2018-May-23 17:24N 37°08' W 008°32'0 0.0
2018-May-23 17:00N 37°08' W 008°32'0 0.0
2018-May-23 16:30N 37°08' W 008°32'0 0.0
2018-May-23 15:58N 37°08' W 008°32'0 0.0
2018-May-23 15:29N 37°08' W 008°32'0 0.0
2018-May-23 15:00N 37°08' W 008°32'0 0.0
2018-May-23 14:30N 37°08' W 008°32'0 0.0
2018-May-23 13:57N 37°08' W 008°32'0 0.0
2018-May-23 13:27N 37°08' W 008°32'0 0.0
2018-May-23 12:58N 37°08' W 008°32'0 0.0
2018-May-23 12:30N 37°08' W 008°32'3 6.0
2018-May-23 12:00N 37°05' W 008°30'510.4
2018-May-23 11:30N 37°02' W 008°25'8 1.2
2018-May-23 04:51N 36°57' W 008°17'1 3.3
2018-May-23 04:30N 36°58' W 008°18'510.3
2018-May-23 04:00N 37°01' W 008°23'510.5
2018-May-23 03:30N 37°04' W 008°28'4 8.9
2018-May-23 03:00N 37°08' W 008°32'0 0.6
2018-May-23 02:30N 37°08' W 008°32'0 0.0
2018-May-23 02:00N 37°08' W 008°32'0 0.0
2018-May-23 01:30N 37°08' W 008°32'0 0.0
2018-May-23 01:00N 37°08' W 008°32'0 0.0
2018-May-23 00:30N 37°08' W 008°32'0 0.0
2018-May-23 00:00N 37°08' W 008°32'0 0.0
2018-May-22 23:30N 37°08' W 008°32'0 0.0
2018-May-22 23:00N 37°08' W 008°32'0 0.0
2018-May-22 22:30N 37°08' W 008°32'0 0.0
2018-May-22 22:00N 37°08' W 008°32'0 0.0
2018-May-22 21:30N 37°08' W 008°32'0 0.0
2018-May-22 21:00N 37°08' W 008°32'0 0.0
2018-May-22 20:30N 37°08' W 008°32'0 0.0
2018-May-22 20:00N 37°08' W 008°32'0 0.0
2018-May-22 19:30N 37°08' W 008°32'0 0.0
2018-May-22 19:00N 37°08' W 008°32'0 0.0
2018-May-22 18:30N 37°08' W 008°32'0 0.0
2018-May-22 18:00N 37°08' W 008°32'0 0.0
2018-May-22 17:30N 37°08' W 008°32'0 0.0
2018-May-22 17:00N 37°08' W 008°32'0 0.0
2018-May-22 16:30N 37°08' W 008°32'0 0.0
2018-May-22 16:00N 37°08' W 008°32'0 0.0
2018-May-22 15:30N 37°08' W 008°32'0 0.0
2018-May-22 15:00N 37°08' W 008°32'0 0.0
2018-May-22 14:30N 37°08' W 008°32'0 0.0
2018-May-22 14:00N 37°08' W 008°32'0 0.0
2018-May-22 13:30N 37°08' W 008°32'0 0.0
2018-May-22 13:00N 37°08' W 008°32'0 0.0
2018-May-22 12:30N 37°08' W 008°32'0 0.0
2018-May-22 12:00N 37°08' W 008°32'0 0.0
2018-May-22 11:30N 37°08' W 008°32'0 0.0
2018-May-22 11:00N 37°08' W 008°32'0 0.0
2018-May-22 10:30N 37°08' W 008°32'0 0.0
2018-May-22 10:00N 37°08' W 008°32'0 0.0
2018-May-22 09:30N 37°08' W 008°32'0 0.0
2018-May-22 09:00N 37°08' W 008°32'0 0.0
2018-May-22 08:30N 37°08' W 008°32'0 0.0
2018-May-22 08:00N 37°08' W 008°32'0 0.0
2018-May-22 07:30N 37°08' W 008°32'0 0.0
2018-May-22 07:00N 37°08' W 008°32'0 0.0
2018-May-22 06:30N 37°08' W 008°32'0 0.0
2018-May-22 06:00N 37°08' W 008°32'0 0.0
2018-May-22 05:30N 37°08' W 008°32'0 0.0
2018-May-22 05:00N 37°08' W 008°32'0 0.0
2018-May-22 04:30N 37°08' W 008°32'0 0.0
2018-May-22 04:00N 37°08' W 008°32'0 0.0
2018-May-22 03:30N 37°08' W 008°32'0 0.0
2018-May-22 03:00N 37°08' W 008°32'0 0.0
2018-May-22 02:30N 37°08' W 008°32'0 0.0
2018-May-22 02:00N 37°08' W 008°32'0 0.0
2018-May-22 01:30N 37°08' W 008°32'0 0.0
2018-May-22 01:00N 37°08' W 008°32'0 0.0
2018-May-22 00:30N 37°08' W 008°32'0 0.0
2018-May-22 00:00N 37°08' W 008°32'0 0.0
2018-May-21 23:30N 37°08' W 008°32'0 0.0
2018-May-21 23:00N 37°08' W 008°32'0 0.0
2018-May-21 22:30N 37°08' W 008°32'0 0.0
2018-May-21 22:00N 37°08' W 008°32'0 0.0
2018-May-21 21:30N 37°08' W 008°32'0 0.0
2018-May-21 21:00N 37°08' W 008°32'0 0.0
2018-May-21 20:30N 37°08' W 008°32'0 0.0
2018-May-21 20:00N 37°08' W 008°32'0 0.0
2018-May-21 19:30N 37°08' W 008°32'0 0.0
2018-May-21 19:00N 37°08' W 008°32'0 0.0
2018-May-21 18:30N 37°08' W 008°32'  

Dump ship's entire track history